Time;durP1;ratioP1;P1;durP2;ratioP2;P2;SDS_P1;SDS_P2;PMS_P1;PMS_P2;Temp;Humidity;BMP_temperature;BMP_pressure;BME280_temperature;BME280_humidity;BME280_pressure;Samples;Min_cycle;Max_cycle;Signal;HPM_P1;HPM_P2
2022/03/28 00:01:19;;;;;;;24.25;13.20;;;8.60;42.90;;;;;;5013802;28;20517;-69
2022/03/28 00:03:45;;;;;;;26.42;13.60;;;8.50;43.30;;;;;;5013655;28;20367;-69
2022/03/28 00:06:11;;;;;;;26.38;13.35;;;8.40;43.60;;;;;;5013675;28;20466;-70
2022/03/28 00:08:37;;;;;;;28.55;13.38;;;8.40;43.90;;;;;;5013701;28;20045;-69
2022/03/28 00:11:06;;;;;;;24.10;13.25;;;8.40;44.00;;;;;;5013657;28;20037;-70
2022/03/28 00:13:33;;;;;;;26.77;12.93;;;8.20;44.30;;;;;;5013651;28;20037;-69
2022/03/28 00:15:59;;;;;;;30.38;13.30;;;8.10;44.80;;;;;;5013733;28;20044;-70
2022/03/28 00:18:25;;;;;;;27.05;13.48;;;8.00;45.30;;;;;;5013648;28;20088;-69
2022/03/28 00:20:53;;;;;;;27.73;13.60;;;7.80;45.70;;;;;;5013757;28;20029;-70
2022/03/28 00:23:19;;;;;;;33.30;13.55;;;7.70;46.30;;;;;;5013597;28;20018;-70
2022/03/28 00:25:45;;;;;;;26.35;12.95;;;7.60;46.60;;;;;;5013541;28;20041;-70
2022/03/28 00:28:11;;;;;;;29.80;12.98;;;7.60;46.60;;;;;;5013565;28;20044;-70
2022/03/28 00:30:37;;;;;;;31.80;13.88;;;7.60;46.70;;;;;;5012390;28;20061;-71
2022/03/28 00:33:03;;;;;;;27.13;12.73;;;7.60;46.70;;;;;;5013182;28;20030;-71
2022/03/28 00:35:29;;;;;;;29.85;13.40;;;7.60;46.60;;;;;;5013367;28;20040;-70
2022/03/28 00:37:55;;;;;;;27.92;12.95;;;7.70;46.60;;;;;;5013440;28;20030;-70
2022/03/28 00:40:21;;;;;;;29.10;13.30;;;7.60;46.60;;;;;;5013170;28;20092;-71
2022/03/28 00:42:50;;;;;;;23.42;12.07;;;7.70;46.60;;;;;;5013352;28;20072;-71
2022/03/28 00:45:16;;;;;;;26.88;13.35;;;7.70;46.30;;;;;;5013213;28;20022;-70
2022/03/28 00:47:42;;;;;;;27.90;13.82;;;7.70;46.20;;;;;;5013194;28;20382;-70
2022/03/28 00:50:09;;;;;;;27.67;13.07;;;7.70;46.30;;;;;;5013271;28;20036;-71
2022/03/28 00:52:36;;;;;;;23.05;13.07;;;7.70;46.40;;;;;;5013316;28;20025;-70
2022/03/28 00:55:03;;;;;;;26.98;13.05;;;7.50;46.80;;;;;;5013129;28;20458;-70
2022/03/28 00:57:30;;;;;;;26.92;12.95;;;7.50;47.00;;;;;;5013065;28;20030;-70
2022/03/28 00:59:56;;;;;;;32.05;13.35;;;7.50;47.10;;;;;;5013108;28;20040;-70
2022/03/28 01:02:21;;;;;;;25.30;12.45;;;7.50;47.20;;;;;;5013089;28;20478;-71
2022/03/28 01:04:47;;;;;;;25.92;13.55;;;7.50;47.20;;;;;;5012941;28;20433;-71
2022/03/28 01:07:13;;;;;;;31.50;12.85;;;7.50;47.30;;;;;;5013074;28;20101;-70
2022/03/28 01:09:39;;;;;;;26.92;12.63;;;7.40;47.20;;;;;;5013037;28;20435;-71
2022/03/28 01:12:05;;;;;;;25.92;12.63;;;7.40;47.40;;;;;;5012966;28;20058;-71
2022/03/28 01:14:32;;;;;;;28.88;12.55;;;7.30;47.70;;;;;;5012752;28;20037;-71
2022/03/28 01:19:42;;;;;;;29.55;12.82;;;7.40;47.60;;;;;;5012999;28;20395;-71
2022/03/28 01:22:07;;;;;;;27.83;13.98;;;7.40;47.60;;;;;;5012833;28;20022;-71
2022/03/28 01:24:33;;;;;;;28.25;12.85;;;7.40;47.60;;;;;;5012853;28;20030;-71
2022/03/28 01:27:01;;;;;;;28.55;12.65;;;7.30;47.80;;;;;;5012570;28;20025;-70
2022/03/28 01:29:28;;;;;;;27.02;13.43;;;7.30;47.90;;;;;;5013047;28;20380;-71
2022/03/28 01:31:53;;;;;;;30.13;14.23;;;7.30;47.90;;;;;;5012802;28;20041;-70
2022/03/28 01:34:20;;;;;;;31.67;13.85;;;7.20;47.90;;;;;;5012769;28;20033;-70
2022/03/28 01:36:47;;;;;;;32.30;14.32;;;7.20;48.20;;;;;;5012782;28;20029;-70
2022/03/28 01:39:16;;;;;;;27.88;13.23;;;7.20;48.20;;;;;;5012851;28;20113;-70
2022/03/28 01:41:42;;;;;;;29.20;12.95;;;7.30;48.20;;;;;;5013369;28;20131;-70
2022/03/28 01:44:08;;;;;;;27.17;13.00;;;7.20;48.10;;;;;;5016380;28;20034;-70
2022/03/28 01:46:48;;;;;;;29.67;13.27;;;7.30;48.20;;;;;;5016365;28;20030;-70
2022/03/28 01:49:16;;;;;;;30.85;12.68;;;7.30;48.10;;;;;;5016519;28;20216;-70
2022/03/28 01:51:42;;;;;;;25.50;12.50;;;7.20;48.00;;;;;;5016301;28;20470;-70
2022/03/28 01:54:09;;;;;;;25.08;12.45;;;7.20;48.30;;;;;;5016245;28;20046;-70
2022/03/28 01:56:38;;;;;;;24.70;12.40;;;7.10;48.60;;;;;;5016303;28;20049;-68
2022/03/28 01:59:05;;;;;;;26.70;13.60;;;7.10;48.80;;;;;;5015981;28;20041;-71
2022/03/28 02:01:31;;;;;;;27.90;13.38;;;7.10;48.50;;;;;;5016076;28;20022;-69
2022/03/28 02:03:57;;;;;;;27.20;12.95;;;7.20;48.30;;;;;;5015989;28;20040;-69
2022/03/28 02:06:23;;;;;;;28.55;12.55;;;7.20;48.20;;;;;;5016025;28;20055;-69
2022/03/28 02:08:49;;;;;;;24.83;13.60;;;7.20;48.20;;;;;;5016110;28;20033;-69
2022/03/28 02:11:15;;;;;;;33.90;14.00;;;7.20;48.10;;;;;;5016023;28;20359;-69
2022/03/28 02:13:40;;;;;;;26.58;12.30;;;7.20;48.00;;;;;;5015668;28;20386;-70
2022/03/28 02:16:06;;;;;;;24.00;11.63;;;7.20;47.90;;;;;;5015916;28;20084;-70
2022/03/28 02:18:32;;;;;;;27.40;12.65;;;7.30;48.00;;;;;;4998231;28;20034;-69
2022/03/28 02:20:58;;;;;;;26.33;13.38;;;7.20;47.90;;;;;;5015651;28;20551;-69
2022/03/28 02:23:23;;;;;;;25.73;12.07;;;7.30;47.90;;;;;;5015693;28;20038;-69
2022/03/28 02:25:49;;;;;;;27.10;13.55;;;7.30;47.90;;;;;;5015684;28;20097;-70
2022/03/28 02:28:14;;;;;;;25.13;12.20;;;7.20;47.90;;;;;;5015525;28;20113;-69
2022/03/28 02:30:40;;;;;;;26.10;13.40;;;7.10;48.40;;;;;;5015591;28;20026;-70
2022/03/28 02:33:07;;;;;;;24.65;12.05;;;7.00;48.80;;;;;;5015460;28;20057;-69
2022/03/28 02:35:33;;;;;;;28.50;13.40;;;6.90;49.10;;;;;;5015399;28;20029;-69
2022/03/28 02:38:01;;;;;;;26.58;12.73;;;6.80;49.30;;;;;;5015316;28;20049;-70
2022/03/28 02:40:31;;;;;;;29.40;12.45;;;6.80;49.40;;;;;;5015081;28;20053;-69
2022/03/28 02:42:57;;;;;;;27.13;13.50;;;6.80;49.20;;;;;;5015245;28;20033;-70
2022/03/28 02:45:29;;;;;;;26.00;13.80;;;6.80;49.10;;;;;;5015241;28;20482;-70
2022/03/28 02:47:55;;;;;;;25.27;12.52;;;6.90;49.10;;;;;;5015216;28;20026;-69
2022/03/28 02:50:20;;;;;;;24.85;12.73;;;7.00;49.00;;;;;;5015091;28;20540;-70
2022/03/28 02:52:46;;;;;;;24.58;12.93;;;7.00;48.90;;;;;;5014713;28;20075;-70
2022/03/28 02:55:12;;;;;;;26.17;12.77;;;7.00;48.90;;;;;;5014451;28;20510;-69
2022/03/28 02:57:37;;;;;;;30.88;13.50;;;7.00;48.80;;;;;;5014953;28;20049;-71
2022/03/28 03:00:07;;;;;;;29.58;13.10;;;7.00;48.90;;;;;;5015266;28;20026;-70
2022/03/28 03:02:33;;;;;;;28.00;12.40;;;6.90;49.10;;;;;;5014911;28;20035;-70
2022/03/28 03:04:59;;;;;;;28.08;12.13;;;6.90;49.40;;;;;;5014959;28;20460;-70
2022/03/28 03:07:24;;;;;;;25.73;12.88;;;6.80;49.30;;;;;;5014755;28;20133;-70
2022/03/28 03:09:51;;;;;;;30.48;13.43;;;6.80;49.40;;;;;;4997180;28;20032;-70
2022/03/28 03:12:16;;;;;;;31.15;13.93;;;6.80;49.50;;;;;;5014759;28;20038;-70
2022/03/28 03:14:42;;;;;;;30.00;12.98;;;6.80;49.60;;;;;;5014625;28;20127;-70
2022/03/28 03:17:07;;;;;;;26.48;12.52;;;6.80;49.60;;;;;;5014662;28;20088;-70
2022/03/28 03:19:33;;;;;;;22.45;12.02;;;6.80;49.30;;;;;;5014546;28;20104;-72
2022/03/28 03:21:58;;;;;;;25.27;12.82;;;6.80;49.30;;;;;;5014541;28;20049;-78
2022/03/28 03:24:24;;;;;;;22.95;12.65;;;6.80;49.40;;;;;;5014648;28;20038;-79
2022/03/28 03:26:49;;;;;;;24.65;13.10;;;6.80;49.40;;;;;;5014304;28;20018;-78
2022/03/28 03:29:15;;;;;;;26.35;13.20;;;6.80;50.00;;;;;;5014495;28;20030;-77
2022/03/28 03:31:40;;;;;;;28.48;13.25;;;6.80;49.10;;;;;;5014418;28;20050;-78
2022/03/28 03:34:09;;;;;;;25.50;11.85;;;6.80;49.10;;;;;;5014332;28;20504;-74
2022/03/28 03:36:35;;;;;;;29.27;12.45;;;6.90;49.00;;;;;;5014337;28;20347;-72
2022/03/28 03:39:00;;;;;;;30.00;12.93;;;6.90;49.00;;;;;;5014169;28;20024;-78
2022/03/28 03:41:26;;;;;;;29.13;13.32;;;6.90;48.90;;;;;;5014005;28;20054;-77
2022/03/28 03:43:52;;;;;;;30.02;12.65;;;6.90;48.70;;;;;;5014133;28;20106;-78
2022/03/28 03:46:17;;;;;;;24.60;13.10;;;6.90;48.70;;;;;;5013978;28;20065;-77
2022/03/28 03:48:43;;;;;;;27.45;14.18;;;6.90;48.80;;;;;;5014094;28;20026;-78
2022/03/28 03:51:09;;;;;;;28.38;14.50;;;6.90;48.90;;;;;;5014657;28;20018;-78
2022/03/28 03:53:34;;;;;;;30.27;13.40;;;6.80;49.00;;;;;;5020471;28;20080;-78
2022/03/28 03:56:00;;;;;;;27.35;12.85;;;6.80;48.80;;;;;;4996269;28;20022;-77
2022/03/28 03:58:26;;;;;;;27.73;13.55;;;6.90;48.80;;;;;;5013925;28;20026;-77
2022/03/28 04:00:52;;;;;;;26.52;13.00;;;6.90;48.70;;;;;;5013804;28;20031;-78
2022/03/28 04:03:17;;;;;;;29.70;13.45;;;6.90;48.60;;;;;;5013579;28;20593;-79
2022/03/28 04:05:43;;;;;;;36.90;13.55;;;6.90;48.60;;;;;;4996253;28;20474;-78
2022/03/28 04:08:09;;;;;;;30.55;13.73;;;6.80;48.60;;;;;;4996209;28;20022;-78
2022/03/28 04:10:35;;;;;;;27.27;13.25;;;6.70;48.80;;;;;;4995868;28;20030;-78
2022/03/28 04:13:02;;;;;;;33.53;12.82;;;6.70;48.80;;;;;;5013654;28;20029;-79
2022/03/28 04:15:28;;;;;;;32.70;13.05;;;6.80;48.90;;;;;;5013435;28;20501;-79
2022/03/28 04:17:53;;;;;;;25.27;12.70;;;6.70;48.80;;;;;;5013684;28;20022;-79
2022/03/28 04:20:20;;;;;;;37.30;14.38;;;6.70;48.70;;;;;;5013556;28;20030;-78
2022/03/28 04:22:46;;;;;;;28.13;13.80;;;6.70;48.80;;;;;;5012987;28;20367;-79
2022/03/28 04:25:13;;;;;;;30.75;13.00;;;6.70;48.80;;;;;;5013480;28;20030;-79
2022/03/28 04:27:39;;;;;;;27.35;13.00;;;6.70;48.60;;;;;;5013296;28;20058;-80
2022/03/28 04:30:07;;;;;;;28.50;13.40;;;6.70;48.70;;;;;;5013399;28;20034;-80
2022/03/28 04:32:33;;;;;;;30.35;12.85;;;6.80;48.70;;;;;;5013242;28;20026;-79
2022/03/28 04:34:59;;;;;;;28.48;14.00;;;6.80;48.50;;;;;;5013190;28;20057;-81
2022/03/28 04:37:24;;;;;;;29.08;14.07;;;6.80;48.40;;;;;;5013227;28;20415;-78
2022/03/28 04:39:50;;;;;;;30.23;14.07;;;6.80;48.40;;;;;;5012814;28;20026;-82
2022/03/28 04:42:16;;;;;;;25.73;14.27;;;6.80;48.60;;;;;;5013288;28;20041;-81
2022/03/28 04:44:41;;;;;;;27.38;13.40;;;6.70;48.70;;;;;;5012559;28;20025;-81
2022/03/28 04:47:07;;;;;;;31.38;13.82;;;6.70;48.80;;;;;;5012493;28;20018;-81
2022/03/28 04:49:33;;;;;;;29.98;13.93;;;6.60;48.80;;;;;;5013163;28;20030;-80
2022/03/28 04:51:59;;;;;;;40.00;14.00;;;6.60;48.90;;;;;;5013405;28;20029;-80
2022/03/28 04:54:24;;;;;;;30.90;15.13;;;6.60;48.90;;;;;;5013090;28;20096;-77
2022/03/28 04:56:50;;;;;;;28.75;13.90;;;6.60;49.00;;;;;;4995478;28;20424;-80
2022/03/28 04:59:16;;;;;;;28.80;13.50;;;6.60;49.20;;;;;;5013093;28;20053;-78
2022/03/28 05:01:41;;;;;;;30.65;13.43;;;6.60;49.50;;;;;;5013110;28;20029;-80
2022/03/28 05:04:07;;;;;;;33.53;15.00;;;6.50;49.70;;;;;;5013137;28;20037;-81
2022/03/28 05:06:33;;;;;;;31.27;13.95;;;6.50;49.60;;;;;;5013040;28;20018;-80
2022/03/28 05:08:59;;;;;;;30.15;15.02;;;6.50;49.70;;;;;;5012955;28;20064;-80
2022/03/28 05:11:24;;;;;;;32.70;13.95;;;6.40;49.70;;;;;;5012731;28;20030;-79
2022/03/28 05:13:50;;;;;;;32.38;14.13;;;6.50;49.60;;;;;;5012833;28;20037;-78
2022/03/28 05:16:16;;;;;;;31.50;14.07;;;6.50;49.30;;;;;;5013094;28;20025;-78
2022/03/28 05:18:43;;;;;;;32.22;14.10;;;6.60;49.00;;;;;;5016720;28;20030;-79
2022/03/28 05:21:08;;;;;;;30.30;14.00;;;6.60;48.90;;;;;;5016924;28;20508;-81
2022/03/28 05:23:34;;;;;;;32.55;13.05;;;6.70;48.80;;;;;;5016749;28;20091;-81
2022/03/28 05:25:59;;;;;;;31.83;14.43;;;6.80;48.60;;;;;;5016843;28;20104;-79
2022/03/28 05:28:25;;;;;;;30.40;13.77;;;6.70;48.50;;;;;;5016641;28;20089;-78
2022/03/28 05:30:52;;;;;;;31.88;14.15;;;6.70;48.50;;;;;;5016430;28;20022;-78
2022/03/28 05:33:18;;;;;;;29.50;13.55;;;6.80;48.30;;;;;;5016372;28;20017;-74
2022/03/28 05:35:44;;;;;;;32.55;14.65;;;6.80;48.20;;;;;;5016341;28;20053;-78
2022/03/28 05:38:11;;;;;;;38.17;16.60;;;6.90;48.30;;;;;;5016525;28;20054;-76
2022/03/28 05:40:37;;;;;;;35.03;16.98;;;6.80;48.40;;;;;;5016657;28;20571;-75
2022/03/28 05:43:03;;;;;;;30.88;14.68;;;6.80;48.50;;;;;;5016118;28;20033;-77
2022/03/28 05:45:29;;;;;;;31.25;13.73;;;6.80;48.40;;;;;;5015848;28;20033;-70
2022/03/28 05:47:54;;;;;;;34.30;15.43;;;6.70;48.60;;;;;;5016328;28;20034;-77
2022/03/28 05:50:20;;;;;;;31.13;15.27;;;6.70;48.60;;;;;;5015482;28;20390;-70
2022/03/28 05:52:46;;;;;;;37.60;15.77;;;6.80;48.50;;;;;;5016190;28;20032;-74
2022/03/28 05:55:11;;;;;;;36.88;16.63;;;6.80;48.50;;;;;;5016122;28;20037;-71
2022/03/28 05:57:37;;;;;;;39.05;16.15;;;6.80;48.50;;;;;;5016127;28;20385;-73
2022/03/28 06:00:05;;;;;;;33.08;15.68;;;6.90;48.40;;;;;;4998667;28;20030;-74
2022/03/28 06:02:32;;;;;;;34.35;15.98;;;7.00;48.30;;;;;;5015464;28;20500;-73
2022/03/28 06:04:58;;;;;;;43.03;16.00;;;7.00;48.30;;;;;;5015496;28;20028;-79
2022/03/28 06:07:23;;;;;;;31.65;15.15;;;7.10;48.30;;;;;;5016018;28;20018;-71
2022/03/28 06:09:49;;;;;;;34.22;15.75;;;7.20;48.20;;;;;;5015814;28;20084;-73
2022/03/28 06:12:15;;;;;;;33.65;15.25;;;7.20;48.10;;;;;;4997980;28;20381;-72
2022/03/28 06:14:40;;;;;;;31.10;14.27;;;7.30;47.90;;;;;;5015661;28;20041;-71
2022/03/28 06:17:06;;;;;;;35.88;15.88;;;7.30;48.00;;;;;;5015537;28;20379;-73
2022/03/28 06:19:32;;;;;;;32.80;15.38;;;7.30;47.90;;;;;;5015635;28;20026;-74
2022/03/28 06:21:58;;;;;;;35.45;14.77;;;7.50;49.30;;;;;;5015488;28;20027;-76
2022/03/28 06:24:23;;;;;;;34.15;14.23;;;7.70;49.10;;;;;;5015663;28;20026;-75
2022/03/28 06:26:49;;;;;;;30.90;15.23;;;8.00;48.60;;;;;;5015601;28;20026;-74
2022/03/28 06:29:15;;;;;;;42.47;15.63;;;8.20;47.20;;;;;;5014097;28;20391;-72
2022/03/28 06:31:41;;;;;;;32.72;14.73;;;8.60;50.20;;;;;;5015469;28;20026;-73
2022/03/28 06:34:07;;;;;;;29.08;14.88;;;8.90;52.20;;;;;;5015301;28;20034;-74
2022/03/28 06:36:33;;;;;;;33.47;14.85;;;9.30;46.50;;;;;;5015324;28;20154;-73
2022/03/28 06:39:00;;;;;;;30.77;14.75;;;9.60;45.00;;;;;;5015588;28;20049;-72
2022/03/28 06:41:26;;;;;;;36.10;15.25;;;9.80;43.40;;;;;;5014933;28;20054;-73
2022/03/28 06:43:51;;;;;;;31.08;15.05;;;10.10;43.20;;;;;;5015316;28;20026;-73
2022/03/28 06:46:17;;;;;;;26.60;14.27;;;10.30;42.00;;;;;;4997292;28;20568;-74
2022/03/28 06:48:43;;;;;;;30.42;17.25;;;10.40;41.60;;;;;;5014769;28;20030;-74
2022/03/28 06:51:09;;;;;;;27.77;15.25;;;10.40;41.50;;;;;;5015194;28;20029;-73
2022/03/28 06:53:34;;;;;;;37.80;16.80;;;10.60;43.50;;;;;;5015105;28;20029;-74
2022/03/28 06:56:01;;;;;;;34.22;16.85;;;10.90;43.00;;;;;;5015028;28;20386;-73
2022/03/28 06:58:27;;;;;;;31.77;16.02;;;11.10;42.20;;;;;;5014437;28;20489;-72
2022/03/28 07:00:53;;;;;;;33.17;16.35;;;11.30;41.50;;;;;;4997076;28;20037;-74
2022/03/28 07:03:19;;;;;;;39.35;19.67;;;11.30;41.00;;;;;;5014647;28;20018;-73
2022/03/28 07:05:45;;;;;;;33.55;17.13;;;11.10;39.90;;;;;;5014736;28;20470;-77
2022/03/28 07:08:12;;;;;;;32.47;16.55;;;11.10;40.20;;;;;;5014636;28;20119;-81
2022/03/28 07:10:37;;;;;;;30.17;16.25;;;11.00;40.40;;;;;;5014902;28;20021;-80
2022/03/28 07:13:04;;;;;;;35.92;17.40;;;11.00;40.70;;;;;;5014519;28;20037;-79
2022/03/28 07:15:29;;;;;;;34.38;16.38;;;10.80;40.30;;;;;;4997075;28;20026;-80
2022/03/28 07:18:02;;;;;;;30.52;16.80;;;10.90;40.40;;;;;;4996937;28;20025;-78
2022/03/28 07:20:30;;;;;;;36.08;17.70;;;10.90;40.40;;;;;;5014856;28;20466;-79
2022/03/28 07:22:57;;;;;;;34.95;16.42;;;11.00;40.50;;;;;;5014479;28;20109;-76
2022/03/28 07:25:24;;;;;;;44.22;18.08;;;11.10;40.50;;;;;;5014460;28;20037;-78
2022/03/28 07:27:50;;;;;;;35.55;16.30;;;11.20;40.20;;;;;;5014419;28;20037;-78
2022/03/28 07:30:17;;;;;;;43.05;18.27;;;11.30;40.00;;;;;;5014596;28;20034;-81
2022/03/28 07:32:43;;;;;;;32.92;17.23;;;11.40;39.80;;;;;;5014279;28;20026;-80
2022/03/28 07:35:10;;;;;;;30.13;16.58;;;11.50;39.60;;;;;;5014246;28;20375;-80
2022/03/28 07:37:38;;;;;;;34.75;16.98;;;11.70;39.30;;;;;;5014152;28;20030;-71
2022/03/28 07:40:05;;;;;;;37.22;17.38;;;11.80;38.80;;;;;;5013265;28;20045;-71
2022/03/28 07:42:32;;;;;;;37.55;17.83;;;11.90;38.80;;;;;;5013887;28;20079;-72
2022/03/28 07:44:58;;;;;;;28.88;16.05;;;12.00;38.90;;;;;;5013771;28;20545;-73
2022/03/28 07:47:25;;;;;;;34.97;16.08;;;12.20;38.90;;;;;;5013104;28;20125;-72
2022/03/28 07:49:52;;;;;;;33.25;15.32;;;12.40;38.80;;;;;;5013521;28;20033;-72
2022/03/28 07:52:18;;;;;;;33.35;16.02;;;12.50;39.00;;;;;;5013934;28;20026;-71
2022/03/28 07:54:44;;;;;;;33.83;19.08;;;12.70;38.80;;;;;;4995682;28;20056;-72
2022/03/28 07:57:09;;;;;;;29.10;15.55;;;12.90;38.80;;;;;;5013751;28;20493;-72
2022/03/28 07:59:35;;;;;;;30.02;15.13;;;13.10;38.60;;;;;;5013585;28;20129;-72
2022/03/28 08:02:01;;;;;;;30.80;15.52;;;13.30;38.70;;;;;;5013699;28;20503;-71
2022/03/28 08:04:27;;;;;;;27.35;15.13;;;13.50;38.90;;;;;;5013466;28;20017;-71
2022/03/28 08:06:53;;;;;;;33.85;16.02;;;13.60;38.20;;;;;;5013396;28;20356;-70
2022/03/28 08:09:18;;;;;;;27.67;14.23;;;13.80;37.40;;;;;;5013497;28;20026;-74
2022/03/28 08:11:44;;;;;;;27.65;14.48;;;13.90;37.60;;;;;;5013682;28;20449;-80
2022/03/28 08:14:09;;;;;;;30.20;14.48;;;14.10;37.20;;;;;;5013445;28;20526;-77
2022/03/28 08:16:35;;;;;;;26.05;14.52;;;14.30;37.20;;;;;;5013314;28;20030;-72
2022/03/28 08:19:01;;;;;;;23.67;13.40;;;14.50;37.20;;;;;;5013403;28;20355;-73
2022/03/28 08:21:27;;;;;;;28.98;14.65;;;14.60;37.30;;;;;;4995841;28;20524;-73
2022/03/28 08:23:52;;;;;;;28.45;14.77;;;14.80;37.50;;;;;;5013466;28;20087;-71
2022/03/28 08:26:18;;;;;;;28.27;13.63;;;15.00;37.10;;;;;;5013230;28;20034;-73
2022/03/28 08:28:44;;;;;;;24.95;14.98;;;15.10;36.90;;;;;;5013353;28;20025;-70
2022/03/28 08:31:10;;;;;;;28.35;15.30;;;15.30;37.00;;;;;;4995522;28;20026;-72
2022/03/28 08:33:35;;;;;;;30.00;17.05;;;15.40;36.20;;;;;;5012987;28;20119;-71
2022/03/28 08:36:01;;;;;;;27.30;15.82;;;15.50;34.70;;;;;;5013124;28;20474;-71
2022/03/28 08:38:27;;;;;;;28.92;16.90;;;15.50;33.60;;;;;;5012870;28;20033;-70
2022/03/28 08:40:53;;;;;;;33.47;16.38;;;15.70;32.90;;;;;;5012792;28;20050;-71
2022/03/28 08:43:20;;;;;;;34.60;17.48;;;15.80;32.30;;;;;;5013124;28;20022;-74
2022/03/28 08:45:49;;;;;;;28.30;15.25;;;16.00;32.00;;;;;;5012849;28;20056;-77
2022/03/28 08:48:15;;;;;;;29.20;15.50;;;16.10;32.60;;;;;;5013253;28;20033;-81
2022/03/28 08:50:44;;;;;;;29.65;16.73;;;16.30;32.80;;;;;;5013002;28;20111;-80
2022/03/28 08:53:11;;;;;;;25.42;16.05;;;16.50;32.40;;;;;;5012637;28;20121;-83
2022/03/28 08:55:39;;;;;;;34.08;16.48;;;16.70;32.30;;;;;;5013127;28;20394;-83
2022/03/28 08:58:05;;;;;;;28.58;15.15;;;16.80;32.50;;;;;;5013096;28;20116;-80
2022/03/28 09:00:30;;;;;;;34.83;16.20;;;17.00;31.50;;;;;;5012977;28;20062;-78
2022/03/28 09:02:57;;;;;;;23.63;14.50;;;17.20;30.80;;;;;;5013171;28;20033;-81
2022/03/28 09:05:31;;;;;;;31.15;15.30;;;17.40;29.70;;;;;;5013233;28;20030;-79
2022/03/28 09:07:58;;;;;;;30.50;14.48;;;17.50;27.20;;;;;;5012994;28;20022;-81
2022/03/28 09:10:25;;;;;;;26.63;14.27;;;17.60;25.30;;;;;;5013540;28;20026;-80
2022/03/28 09:13:01;;;;;;;26.13;13.23;;;17.70;20.60;;;;;;5013286;28;20026;-76
2022/03/28 09:15:55;;;;;;;27.55;13.30;;;17.80;19.00;;;;;;4996261;28;20125;-81
2022/03/28 09:18:26;;;;;;;28.17;13.55;;;17.90;19.00;;;;;;5009194;28;20474;-77
2022/03/28 09:20:55;;;;;;;20.00;12.60;;;17.80;18.10;;;;;;5015318;28;20041;-74
2022/03/28 09:23:34;;;;;;;25.35;13.98;;;17.90;18.10;;;;;;5013646;28;20032;-71
2022/03/28 09:26:08;;;;;;;23.08;13.50;;;18.10;17.70;;;;;;4999918;28;20529;-70
2022/03/28 09:28:56;;;;;;;22.10;12.93;;;18.20;17.60;;;;;;5015426;28;20095;-70
2022/03/28 09:31:31;;;;;;;21.75;13.02;;;18.40;16.60;;;;;;5015366;28;20029;-71
2022/03/28 09:34:17;;;;;;;22.45;12.82;;;18.30;16.20;;;;;;5015310;28;20029;-72
2022/03/28 09:36:43;;;;;;;;;;;18.30;16.00;;;;;;5015184;28;20033;-72
2022/03/28 09:39:10;;;;;;;;;;;18.60;16.20;;;;;;5016746;28;19909;-72
2022/03/28 09:41:36;;;;;;;24.00;13.52;;;18.70;16.10;;;;;;5015862;28;19917;-72
2022/03/28 09:44:02;;;;;;;23.85;13.52;;;18.80;16.30;;;;;;5014127;28;20496;-72
2022/03/28 09:46:30;;;;;;;19.85;13.20;;;18.90;16.30;;;;;;5012460;28;20049;-72
2022/03/28 09:48:58;;;;;;;26.10;13.93;;;19.10;16.70;;;;;;5012953;28;20492;-72
2022/03/28 09:51:26;;;;;;;21.50;13.40;;;19.10;15.90;;;;;;5012735;28;20063;-72
2022/03/28 09:53:52;;;;;;;21.73;14.00;;;19.30;15.40;;;;;;5012405;28;20030;-74
2022/03/28 09:56:18;;;;;;;19.00;12.45;;;19.20;14.60;;;;;;5012388;28;20029;-71
2022/03/28 09:58:49;;;;;;;21.13;13.95;;;19.20;14.40;;;;;;4995234;28;20034;-71
2022/03/28 10:01:23;;;;;;;22.10;12.60;;;19.30;14.40;;;;;;5012384;28;20030;-71
2022/03/28 10:03:54;;;;;;;21.85;12.57;;;19.20;14.80;;;;;;4996433;28;20083;-74
2022/03/28 10:06:20;;;;;;;24.00;13.48;;;19.40;14.80;;;;;;5016449;28;20029;-81
2022/03/28 10:08:46;;;;;;;21.00;13.60;;;19.60;14.30;;;;;;5016249;28;20501;-82
2022/03/28 10:11:13;;;;;;;19.50;13.18;;;19.70;14.50;;;;;;5014991;28;20037;-81
2022/03/28 10:13:39;;;;;;;21.17;13.20;;;19.80;14.40;;;;;;5015032;28;20057;-82
2022/03/28 10:16:06;;;;;;;20.40;12.95;;;20.00;14.40;;;;;;5015768;28;20026;-75
2022/03/28 10:18:33;;;;;;;18.38;12.30;;;19.90;13.80;;;;;;5015667;28;20116;-72
2022/03/28 10:21:07;;;;;;;19.98;12.60;;;20.10;13.20;;;;;;5015293;28;20022;-80
2022/03/28 10:23:55;;;;;;;19.50;11.85;;;20.10;13.30;;;;;;5015858;28;20037;-71
2022/03/28 10:26:30;;;;;;;18.50;12.15;;;20.10;12.80;;;;;;5015425;28;20112;-71
2022/03/28 10:28:59;;;;;;;17.88;12.27;;;20.20;12.60;;;;;;5015350;28;20073;-72
2022/03/28 10:31:25;;;;;;;20.48;11.35;;;20.30;12.60;;;;;;5016335;28;20022;-79
2022/03/28 10:33:53;;;;;;;16.50;11.35;;;20.50;12.40;;;;;;4998006;28;20045;-76
2022/03/28 10:36:28;;;;;;;21.10;12.07;;;20.70;12.60;;;;;;5015218;28;20026;-76
2022/03/28 10:39:15;;;;;;;17.02;11.00;;;20.60;11.60;;;;;;5015172;28;20517;-80
2022/03/28 10:41:41;;;;;;;17.20;11.20;;;20.60;11.30;;;;;;5014892;28;20046;-80
2022/03/28 10:44:07;;;;;;;17.75;10.75;;;20.40;11.20;;;;;;5015379;28;20447;-79
2022/03/28 10:46:35;;;;;;;18.30;10.50;;;20.20;10.80;;;;;;5014903;28;20080;-81
2022/03/28 10:49:02;;;;;;;19.98;12.40;;;20.20;11.20;;;;;;5015320;28;20429;-80
2022/03/28 10:51:30;;;;;;;19.38;10.90;;;20.20;11.20;;;;;;5015075;28;20088;-80
2022/03/28 10:54:05;;;;;;;20.13;12.23;;;20.20;11.00;;;;;;5014689;28;20037;-80
2022/03/28 10:56:43;;;;;;;21.08;12.25;;;20.40;11.20;;;;;;5014945;28;20478;-81
2022/03/28 10:59:11;;;;;;;22.40;12.93;;;20.60;11.40;;;;;;5015030;28;20038;-80
2022/03/28 11:01:38;;;;;;;23.30;12.90;;;20.60;11.30;;;;;;5014819;28;20053;-80
2022/03/28 11:04:07;;;;;;;20.35;12.38;;;20.60;11.70;;;;;;5015193;28;20034;-78
2022/03/28 11:07:11;;;;;;;22.92;13.75;;;20.50;12.10;;;;;;4997241;28;20489;-80
2022/03/28 11:10:03;;;;;;;20.42;12.52;;;20.20;12.40;;;;;;5010516;28;20030;-78
2022/03/28 11:12:40;;;;;;;15.00;10.95;;;20.60;12.20;;;;;;5014803;28;20026;-80
2022/03/28 11:15:11;;;;;;;20.02;11.57;;;21.10;12.60;;;;;;5013845;28;20034;-83
2022/03/28 11:17:38;;;;;;;19.83;12.63;;;21.70;12.70;;;;;;4997113;28;20084;-82
2022/03/28 11:20:14;;;;;;;18.15;13.32;;;22.00;12.20;;;;;;5014789;28;20466;-73
2022/03/28 11:22:44;;;;;;;22.17;13.15;;;22.20;11.30;;;;;;5014105;28;20037;-72
2022/03/28 11:25:39;;;;;;;19.70;12.48;;;22.30;11.30;;;;;;4996647;28;20030;-73
2022/03/28 11:28:09;;;;;;;21.00;12.77;;;22.30;11.60;;;;;;5014400;28;20018;-75
2022/03/28 11:30:45;;;;;;;19.92;12.55;;;22.30;11.90;;;;;;4996506;28;20090;-72
2022/03/28 11:33:32;;;;;;;22.33;12.80;;;22.30;11.60;;;;;;5014116;28;20084;-77
2022/03/28 11:36:02;;;;;;;22.55;12.85;;;22.30;11.50;;;;;;5000260;28;20052;-77
2022/03/28 11:38:30;;;;;;;21.58;14.07;;;22.40;11.50;;;;;;4996742;28;20018;-74
2022/03/28 11:40:57;;;;;;;22.55;12.68;;;22.50;11.90;;;;;;5014071;28;20496;-78
2022/03/28 11:43:43;;;;;;;23.77;13.82;;;22.60;11.50;;;;;;4996549;28;20109;-77
2022/03/28 11:46:15;;;;;;;23.02;14.55;;;22.60;11.20;;;;;;5014026;28;20109;-77
2022/03/28 11:49:11;;;;;;;21.33;12.00;;;22.40;11.60;;;;;;5014360;28;20022;-75
2022/03/28 11:51:44;;;;;;;22.63;13.20;;;22.10;11.80;;;;;;5003051;28;20048;-74
2022/03/28 11:54:16;;;;;;;21.65;13.90;;;22.30;12.20;;;;;;5018594;28;20065;-81
2022/03/28 11:59:30;;;;;;;20.75;13.23;;;22.80;11.70;;;;;;5014112;28;20029;-72
2022/03/28 12:02:00;;;;;;;21.27;14.15;;;22.80;11.70;;;;;;5013763;28;20030;-77
2022/03/28 12:04:26;;;;;;;21.85;13.45;;;23.40;11.70;;;;;;4996542;28;20465;-75
2022/03/28 12:06:52;;;;;;;19.98;12.10;;;23.60;11.10;;;;;;5013951;28;20053;-77
2022/03/28 12:09:20;;;;;;;17.88;12.40;;;23.70;10.90;;;;;;5013838;28;20144;-75
2022/03/28 12:11:52;;;;;;;22.00;13.52;;;23.70;10.60;;;;;;5014176;28;20379;-75
2022/03/28 12:14:18;;;;;;;17.15;12.70;;;23.70;9.90;;;;;;4995976;28;20486;-76
2022/03/28 12:16:49;;;;;;;17.35;12.65;;;23.70;10.50;;;;;;5013637;28;20062;-72
2022/03/28 12:19:16;;;;;;;20.42;12.38;;;23.80;10.30;;;;;;5012930;28;20486;-76
2022/03/28 12:21:43;;;;;;;24.40;13.38;;;24.20;10.20;;;;;;5013627;28;20470;-75
2022/03/28 12:24:09;;;;;;;22.92;13.90;;;24.30;10.30;;;;;;5013683;28;20087;-73
2022/03/28 12:26:44;;;;;;;19.73;13.27;;;23.80;10.60;;;;;;5017598;28;20456;-70
2022/03/28 12:29:14;;;;;;;22.85;14.02;;;23.70;11.50;;;;;;5013946;28;20024;-73
2022/03/28 12:31:44;;;;;;;25.50;15.35;;;23.70;10.60;;;;;;5013564;28;20013;-75
2022/03/28 12:34:11;;;;;;;21.52;14.35;;;23.40;11.10;;;;;;4995751;28;20165;-77
2022/03/28 12:36:37;;;;;;;26.63;14.65;;;23.00;11.40;;;;;;5013634;28;20427;-76
2022/03/28 12:39:06;;;;;;;22.42;13.80;;;22.90;11.80;;;;;;4995443;28;20028;-76
2022/03/28 12:41:44;;;;;;;22.90;15.00;;;23.10;11.90;;;;;;5013223;28;20076;-77